Max, Minnesota
Current Conditions -  °F | °C
As of 1:33 AM on Saturday 25 Oct 2014 (Local Time) from KFOZ Reporting Station
Clear Clear  
Wind Chill: 55°   Ceiling: Unl
Heat Index: 55°   Visibility: 10mi
Dew Point: 32°   Wind: 9mph
Humidity: 41%   Direction: 280°W
Pressure: 29.82"   Gusts: 18mph
Location:  47.61°N, 94.07°W
Report Text: KFOZ 250633Z AUTO 28008G16KT 143V323 10SM CLR 13/00 A2982 RMK AO2
Loading
Personal Weather Stations






























Interactive Weather Map
Tropical Storm Tracking
New forecast layout! Learn more

10-Day Weather Forecast

Advertisements
Track Severe Weather on mobile